sensor_id;sensor_type;location;lat;lon;timestamp;P1;P2;P0
65556;PMS3003;52200;53.490;14.376;2023-09-08T00:01:12;28.25;24.50;17.75
65556;PMS3003;52200;53.490;14.376;2023-09-08T00:03:38;28.75;24.00;16.00
65556;PMS3003;52200;53.490;14.376;2023-09-08T00:06:03;29.75;25.75;16.25
65556;PMS3003;52200;53.490;14.376;2023-09-08T00:08:29;28.00;23.60;15.60
65556;PMS3003;52200;53.490;14.376;2023-09-08T00:10:54;27.50;25.25;16.00
65556;PMS3003;52200;53.490;14.376;2023-09-08T00:13:20;28.25;24.75;15.25
65556;PMS3003;52200;53.490;14.376;2023-09-08T00:15:45;27.75;23.00;17.00
65556;PMS3003;52200;53.490;14.376;2023-09-08T00:18:11;27.50;22.50;16.25
65556;PMS3003;52200;53.490;14.376;2023-09-08T00:20:37;28.00;22.00;16.40
65556;PMS3003;52200;53.490;14.376;2023-09-08T00:23:02;25.75;20.75;15.00
65556;PMS3003;52200;53.490;14.376;2023-09-08T00:25:27;25.00;21.00;14.50
65556;PMS3003;52200;53.490;14.376;2023-09-08T00:27:53;26.50;21.25;15.75
65556;PMS3003;52200;53.490;14.376;2023-09-08T00:30:18;30.25;26.50;15.25
65556;PMS3003;52200;53.490;14.376;2023-09-08T00:32:44;21.50;20.25;14.00
65556;PMS3003;52200;53.490;14.376;2023-09-08T00:35:11;30.00;24.50;15.00
65556;PMS3003;52200;53.490;14.376;2023-09-08T00:37:38;26.60;20.40;14.00
65556;PMS3003;52200;53.490;14.376;2023-09-08T00:40:05;25.40;22.20;14.40
65556;PMS3003;52200;53.490;14.376;2023-09-08T00:42:33;27.40;22.00;14.80
65556;PMS3003;52200;53.490;14.376;2023-09-08T00:44:58;26.25;22.00;15.75
65556;PMS3003;52200;53.490;14.376;2023-09-08T00:47:23;25.00;20.50;12.75
65556;PMS3003;52200;53.490;14.376;2023-09-08T00:49:49;25.50;21.00;14.25
65556;PMS3003;52200;53.490;14.376;2023-09-08T00:52:16;23.20;20.60;13.80
65556;PMS3003;52200;53.490;14.376;2023-09-08T00:54:42;22.00;18.75;13.75
65556;PMS3003;52200;53.490;14.376;2023-09-08T00:57:07;24.50;21.00;13.00
65556;PMS3003;52200;53.490;14.376;2023-09-08T00:59:34;26.20;20.40;14.00
65556;PMS3003;52200;53.490;14.376;2023-09-08T01:02:01;23.20;19.00;12.20
65556;PMS3003;52200;53.490;14.376;2023-09-08T01:04:27;27.20;22.20;12.80
65556;PMS3003;52200;53.490;14.376;2023-09-08T01:06:53;24.40;18.40;12.20
65556;PMS3003;52200;53.490;14.376;2023-09-08T01:09:20;23.20;19.60;12.20
65556;PMS3003;52200;53.490;14.376;2023-09-08T01:11:46;24.00;20.40;14.00
65556;PMS3003;52200;53.490;14.376;2023-09-08T01:14:12;24.40;20.80;15.00
65556;PMS3003;52200;53.490;14.376;2023-09-08T01:16:38;25.20;20.20;15.00
65556;PMS3003;52200;53.490;14.376;2023-09-08T01:19:05;25.40;21.00;14.80
65556;PMS3003;52200;53.490;14.376;2023-09-08T01:27:29;25.40;21.80;14.40
65556;PMS3003;52200;53.490;14.376;2023-09-08T01:29:58;22.20;20.20;13.80
65556;PMS3003;52200;53.490;14.376;2023-09-08T01:32:25;24.60;21.80;15.20
65556;PMS3003;52200;53.490;14.376;2023-09-08T01:34:51;22.40;18.80;13.00
65556;PMS3003;52200;53.490;14.376;2023-09-08T01:37:17;27.00;20.50;14.00
65556;PMS3003;52200;53.490;14.376;2023-09-08T01:39:42;27.00;21.25;14.75
65556;PMS3003;52200;53.490;14.376;2023-09-08T01:42:07;27.25;21.50;13.00
65556;PMS3003;52200;53.490;14.376;2023-09-08T01:44:33;24.75;20.75;13.25
65556;PMS3003;52200;53.490;14.376;2023-09-08T01:46:58;25.75;19.50;14.00
65556;PMS3003;52200;53.490;14.376;2023-09-08T01:49:24;26.25;20.75;14.00
65556;PMS3003;52200;53.490;14.376;2023-09-08T01:51:49;26.50;22.00;15.75
65556;PMS3003;52200;53.490;14.376;2023-09-08T01:54:15;22.60;18.80;13.00
65556;PMS3003;52200;53.490;14.376;2023-09-08T01:56:41;21.50;18.50;13.00
65556;PMS3003;52200;53.490;14.376;2023-09-08T01:59:06;23.75;20.00;13.00
65556;PMS3003;52200;53.490;14.376;2023-09-08T02:01:31;24.00;18.25;13.75
65556;PMS3003;52200;53.490;14.376;2023-09-08T02:03:57;23.75;19.75;15.00
65556;PMS3003;52200;53.490;14.376;2023-09-08T02:06:22;22.25;19.25;11.25
65556;PMS3003;52200;53.490;14.376;2023-09-08T02:08:47;25.25;21.00;14.00
65556;PMS3003;52200;53.490;14.376;2023-09-08T02:11:13;23.50;20.00;13.50
65556;PMS3003;52200;53.490;14.376;2023-09-08T02:13:39;23.50;18.75;14.00
65556;PMS3003;52200;53.490;14.376;2023-09-08T02:16:07;23.80;19.00;13.40
65556;PMS3003;52200;53.490;14.376;2023-09-08T02:18:33;21.60;17.60;11.60
65556;PMS3003;52200;53.490;14.376;2023-09-08T02:21:01;23.75;19.75;14.50
65556;PMS3003;52200;53.490;14.376;2023-09-08T02:23:26;22.00;18.00;11.80
65556;PMS3003;52200;53.490;14.376;2023-09-08T02:25:52;21.50;17.75;12.50
65556;PMS3003;52200;53.490;14.376;2023-09-08T02:28:17;23.75;17.75;12.75
65556;PMS3003;52200;53.490;14.376;2023-09-08T02:30:42;23.75;18.50;12.50
65556;PMS3003;52200;53.490;14.376;2023-09-08T02:33:08;22.25;18.00;13.00
65556;PMS3003;52200;53.490;14.376;2023-09-08T02:35:37;19.00;16.00;11.00
65556;PMS3003;52200;53.490;14.376;2023-09-08T02:38:03;23.40;19.40;13.60
65556;PMS3003;52200;53.490;14.376;2023-09-08T02:40:29;22.25;17.00;12.75
65556;PMS3003;52200;53.490;14.376;2023-09-08T02:42:54;22.25;18.00;13.00
65556;PMS3003;52200;53.490;14.376;2023-09-08T02:45:22;20.00;17.00;12.80
65556;PMS3003;52200;53.490;14.376;2023-09-08T02:47:47;19.80;16.00;12.00
65556;PMS3003;52200;53.490;14.376;2023-09-08T02:50:14;21.20;16.80;11.40
65556;PMS3003;52200;53.490;14.376;2023-09-08T02:52:40;21.00;17.00;12.25
65556;PMS3003;52200;53.490;14.376;2023-09-08T02:55:05;21.00;17.00;12.00
65556;PMS3003;52200;53.490;14.376;2023-09-08T02:57:31;19.60;15.80;10.40
65556;PMS3003;52200;53.490;14.376;2023-09-08T02:59:57;25.50;19.00;13.50
65556;PMS3003;52200;53.490;14.376;2023-09-08T03:02:24;22.50;17.00;12.50
65556;PMS3003;52200;53.490;14.376;2023-09-08T03:04:50;20.80;16.40;11.80
65556;PMS3003;52200;53.490;14.376;2023-09-08T03:07:15;20.00;17.00;11.75
65556;PMS3003;52200;53.490;14.376;2023-09-08T03:09:41;23.25;17.75;12.00
65556;PMS3003;52200;53.490;14.376;2023-09-08T03:12:06;24.00;20.25;13.00
65556;PMS3003;52200;53.490;14.376;2023-09-08T03:14:31;22.50;18.50;13.75
65556;PMS3003;52200;53.490;14.376;2023-09-08T03:16:57;25.50;21.00;13.75
65556;PMS3003;52200;53.490;14.376;2023-09-08T03:19:22;21.75;17.75;12.50
65556;PMS3003;52200;53.490;14.376;2023-09-08T03:21:48;24.75;20.25;13.75
65556;PMS3003;52200;53.490;14.376;2023-09-08T03:24:13;25.50;22.00;14.00
65556;PMS3003;52200;53.490;14.376;2023-09-08T03:26:38;27.50;22.25;14.00
65556;PMS3003;52200;53.490;14.376;2023-09-08T03:29:05;25.80;22.40;14.40
65556;PMS3003;52200;53.490;14.376;2023-09-08T03:31:31;24.80;22.80;14.00
65556;PMS3003;52200;53.490;14.376;2023-09-08T03:33:56;23.50;19.25;13.00
65556;PMS3003;52200;53.490;14.376;2023-09-08T03:36:22;27.75;20.75;13.25
65556;PMS3003;52200;53.490;14.376;2023-09-08T03:38:47;24.75;21.50;13.75
65556;PMS3003;52200;53.490;14.376;2023-09-08T03:41:12;25.00;21.75;15.00
65556;PMS3003;52200;53.490;14.376;2023-09-08T03:43:38;25.50;21.75;14.00
65556;PMS3003;52200;53.490;14.376;2023-09-08T03:46:03;27.75;24.25;14.50
65556;PMS3003;52200;53.490;14.376;2023-09-08T03:48:29;26.75;22.75;14.50
65556;PMS3003;52200;53.490;14.376;2023-09-08T03:50:54;27.50;23.00;14.50
65556;PMS3003;52200;53.490;14.376;2023-09-08T03:53:20;27.00;22.00;14.00
65556;PMS3003;52200;53.490;14.376;2023-09-08T03:55:45;24.25;21.00;13.50
65556;PMS3003;52200;53.490;14.376;2023-09-08T03:58:10;28.00;24.00;14.50
65556;PMS3003;52200;53.490;14.376;2023-09-08T04:00:36;29.50;24.25;16.00
65556;PMS3003;52200;53.490;14.376;2023-09-08T04:03:01;31.25;24.50;14.00
65556;PMS3003;52200;53.490;14.376;2023-09-08T04:05:27;25.50;21.00;14.75
65556;PMS3003;52200;53.490;14.376;2023-09-08T04:07:52;25.25;18.50;14.00
65556;PMS3003;52200;53.490;14.376;2023-09-08T04:10:18;26.75;23.00;15.00
65556;PMS3003;52200;53.490;14.376;2023-09-08T04:12:44;28.75;24.00;15.75
65556;PMS3003;52200;53.490;14.376;2023-09-08T04:15:09;26.00;21.75;14.75
65556;PMS3003;52200;53.490;14.376;2023-09-08T04:17:35;28.00;22.50;14.50
65556;PMS3003;52200;53.490;14.376;2023-09-08T04:20:02;28.00;24.40;15.00
65556;PMS3003;52200;53.490;14.376;2023-09-08T04:22:33;30.80;22.80;15.40
65556;PMS3003;52200;53.490;14.376;2023-09-08T04:24:58;26.00;22.25;15.00
65556;PMS3003;52200;53.490;14.376;2023-09-08T04:27:24;25.25;21.75;14.25
65556;PMS3003;52200;53.490;14.376;2023-09-08T04:29:49;26.25;22.25;15.00
65556;PMS3003;52200;53.490;14.376;2023-09-08T04:32:15;26.00;22.75;14.00
65556;PMS3003;52200;53.490;14.376;2023-09-08T04:34:40;26.50;22.50;14.00
65556;PMS3003;52200;53.490;14.376;2023-09-08T04:37:07;26.40;22.20;15.80
65556;PMS3003;52200;53.490;14.376;2023-09-08T04:39:33;25.60;22.40;15.80
65556;PMS3003;52200;53.490;14.376;2023-09-08T04:42:00;24.00;20.80;13.80
65556;PMS3003;52200;53.490;14.376;2023-09-08T04:44:26;24.00;20.60;14.00
65556;PMS3003;52200;53.490;14.376;2023-09-08T04:46:52;23.50;18.50;14.75
65556;PMS3003;52200;53.490;14.376;2023-09-08T04:49:17;26.60;22.60;14.40
65556;PMS3003;52200;53.490;14.376;2023-09-08T04:51:43;24.75;19.00;14.25
65556;PMS3003;52200;53.490;14.376;2023-09-08T04:54:09;30.00;25.00;16.75
65556;PMS3003;52200;53.490;14.376;2023-09-08T04:56:34;27.25;21.75;14.00
65556;PMS3003;52200;53.490;14.376;2023-09-08T04:58:59;25.00;20.50;14.00
65556;PMS3003;52200;53.490;14.376;2023-09-08T05:01:26;29.40;22.60;14.00
65556;PMS3003;52200;53.490;14.376;2023-09-08T05:03:52;26.60;20.80;14.00
65556;PMS3003;52200;53.490;14.376;2023-09-08T05:06:17;27.50;23.50;15.75
65556;PMS3003;52200;53.490;14.376;2023-09-08T05:08:42;23.75;19.00;15.00
65556;PMS3003;52200;53.490;14.376;2023-09-08T05:11:09;24.80;20.60;14.20
65556;PMS3003;52200;53.490;14.376;2023-09-08T05:13:35;26.80;21.40;13.80
65556;PMS3003;52200;53.490;14.376;2023-09-08T05:16:00;26.50;22.00;14.50
65556;PMS3003;52200;53.490;14.376;2023-09-08T05:18:35;22.40;18.40;14.00
65556;PMS3003;52200;53.490;14.376;2023-09-08T05:21:01;28.00;20.40;14.00
65556;PMS3003;52200;53.490;14.376;2023-09-08T05:23:27;28.00;24.00;16.00
65556;PMS3003;52200;53.490;14.376;2023-09-08T05:25:52;29.00;26.25;17.00
65556;PMS3003;52200;53.490;14.376;2023-09-08T05:28:17;28.75;22.75;15.00
65556;PMS3003;52200;53.490;14.376;2023-09-08T05:30:43;27.75;23.75;15.50
65556;PMS3003;52200;53.490;14.376;2023-09-08T05:33:08;23.75;21.25;14.50
65556;PMS3003;52200;53.490;14.376;2023-09-08T05:35:33;24.00;20.50;15.50
65556;PMS3003;52200;53.490;14.376;2023-09-08T05:37:59;26.00;25.25;15.25
65556;PMS3003;52200;53.490;14.376;2023-09-08T05:40:24;24.00;22.25;15.50
65556;PMS3003;52200;53.490;14.376;2023-09-08T05:42:51;28.60;28.00;16.40
65556;PMS3003;52200;53.490;14.376;2023-09-08T05:45:16;29.75;25.50;17.00
65556;PMS3003;52200;53.490;14.376;2023-09-08T05:47:42;34.25;29.75;18.50
65556;PMS3003;52200;53.490;14.376;2023-09-08T05:50:07;43.25;35.25;22.00
65556;PMS3003;52200;53.490;14.376;2023-09-08T05:52:32;38.50;34.50;22.75
65556;PMS3003;52200;53.490;14.376;2023-09-08T05:54:58;42.25;36.50;22.00
65556;PMS3003;52200;53.490;14.376;2023-09-08T05:57:24;44.25;37.50;23.25
65556;PMS3003;52200;53.490;14.376;2023-09-08T05:59:49;44.00;37.75;23.75
65556;PMS3003;52200;53.490;14.376;2023-09-08T06:02:14;44.00;37.75;24.00
65556;PMS3003;52200;53.490;14.376;2023-09-08T06:04:40;41.00;37.00;23.25
65556;PMS3003;52200;53.490;14.376;2023-09-08T06:07:05;42.75;38.00;24.50
65556;PMS3003;52200;53.490;14.376;2023-09-08T06:09:31;43.75;38.75;25.00
65556;PMS3003;52200;53.490;14.376;2023-09-08T06:11:57;45.60;39.80;25.00
65556;PMS3003;52200;53.490;14.376;2023-09-08T06:14:22;49.25;40.75;26.25
65556;PMS3003;52200;53.490;14.376;2023-09-08T06:16:48;50.00;42.75;27.00
65556;PMS3003;52200;53.490;14.376;2023-09-08T06:19:13;52.33;44.33;28.33
65556;PMS3003;52200;53.490;14.376;2023-09-08T06:21:39;55.67;45.67;29.00
65556;PMS3003;52200;53.490;14.376;2023-09-08T06:24:04;54.00;45.00;29.00
65556;PMS3003;52200;53.490;14.376;2023-09-08T06:26:29;53.67;44.00;28.00
65556;PMS3003;52200;53.490;14.376;2023-09-08T06:28:55;53.33;44.33;29.00
65556;PMS3003;52200;53.490;14.376;2023-09-08T06:31:20;51.67;43.33;26.33
65556;PMS3003;52200;53.490;14.376;2023-09-08T06:33:45;47.50;39.75;23.75
65556;PMS3003;52200;53.490;14.376;2023-09-08T06:36:11;48.00;40.00;25.00
65556;PMS3003;52200;53.490;14.376;2023-09-08T06:38:36;42.00;37.25;24.00
65556;PMS3003;52200;53.490;14.376;2023-09-08T06:41:07;47.75;37.75;24.25
65556;PMS3003;52200;53.490;14.376;2023-09-08T06:43:33;41.00;36.00;23.40
65556;PMS3003;52200;53.490;14.376;2023-09-08T06:49:20;44.00;37.00;23.00
65556;PMS3003;52200;53.490;14.376;2023-09-08T06:51:46;38.60;34.60;23.00
65556;PMS3003;52200;53.490;14.376;2023-09-08T06:54:13;38.00;34.00;22.60
65556;PMS3003;52200;53.490;14.376;2023-09-08T06:56:39;36.75;33.25;22.00
65556;PMS3003;52200;53.490;14.376;2023-09-08T06:59:04;35.75;33.00;21.00
65556;PMS3003;52200;53.490;14.376;2023-09-08T07:01:29;36.75;33.00;22.00
65556;PMS3003;52200;53.490;14.376;2023-09-08T07:03:55;36.50;32.50;20.00
65556;PMS3003;52200;53.490;14.376;2023-09-08T07:06:20;36.25;32.25;20.00
65556;PMS3003;52200;53.490;14.376;2023-09-08T07:08:47;32.80;30.60;20.00
65556;PMS3003;52200;53.490;14.376;2023-09-08T07:11:15;32.00;30.00;20.00
65556;PMS3003;52200;53.490;14.376;2023-09-08T07:13:40;34.75;32.50;20.00
65556;PMS3003;52200;53.490;14.376;2023-09-08T07:16:06;36.50;33.00;20.25
65556;PMS3003;52200;53.490;14.376;2023-09-08T07:18:31;34.50;32.00;20.00
65556;PMS3003;52200;53.490;14.376;2023-09-08T07:21:00;29.00;29.00;18.40
65556;PMS3003;52200;53.490;14.376;2023-09-08T07:23:26;36.25;33.50;20.25
65556;PMS3003;52200;53.490;14.376;2023-09-08T07:25:51;37.50;33.00;20.50
65556;PMS3003;52200;53.490;14.376;2023-09-08T07:28:17;35.00;33.00;19.25
65556;PMS3003;52200;53.490;14.376;2023-09-08T07:30:42;33.00;31.25;20.00
65556;PMS3003;52200;53.490;14.376;2023-09-08T07:33:09;32.60;30.80;19.60
65556;PMS3003;52200;53.490;14.376;2023-09-08T07:35:38;33.00;30.50;19.50
65556;PMS3003;52200;53.490;14.376;2023-09-08T07:38:04;32.00;30.40;19.00
65556;PMS3003;52200;53.490;14.376;2023-09-08T07:42:57;34.40;29.80;18.00
65556;PMS3003;52200;53.490;14.376;2023-09-08T07:45:22;27.50;27.00;17.00
65556;PMS3003;52200;53.490;14.376;2023-09-08T07:47:48;27.50;27.50;16.25
65556;PMS3003;52200;53.490;14.376;2023-09-08T07:50:17;27.50;27.25;17.75
65556;PMS3003;52200;53.490;14.376;2023-09-08T07:52:50;27.00;26.00;16.60
65556;PMS3003;52200;53.490;14.376;2023-09-08T07:55:17;26.00;24.00;16.00
65556;PMS3003;52200;53.490;14.376;2023-09-08T07:57:44;25.40;25.00;15.00
65556;PMS3003;52200;53.490;14.376;2023-09-08T08:00:11;24.40;24.40;15.40
65556;PMS3003;52200;53.490;14.376;2023-09-08T08:02:48;27.00;26.40;15.60
65556;PMS3003;52200;53.490;14.376;2023-09-08T08:05:15;27.60;26.60;16.00
65556;PMS3003;52200;53.490;14.376;2023-09-08T08:07:40;27.80;24.20;14.60
65556;PMS3003;52200;53.490;14.376;2023-09-08T08:10:07;26.40;25.40;15.80
65556;PMS3003;52200;53.490;14.376;2023-09-08T08:12:33;24.40;24.40;15.00
65556;PMS3003;52200;53.490;14.376;2023-09-08T08:14:59;23.00;23.00;14.00
65556;PMS3003;52200;53.490;14.376;2023-09-08T08:17:24;24.25;23.50;14.00
65556;PMS3003;52200;53.490;14.376;2023-09-08T08:19:51;27.60;24.20;15.00
65556;PMS3003;52200;53.490;14.376;2023-09-08T08:22:17;20.80;20.80;13.00
65556;PMS3003;52200;53.490;14.376;2023-09-08T08:24:42;21.25;21.25;14.50
65556;PMS3003;52200;53.490;14.376;2023-09-08T08:27:08;24.25;23.50;12.75
65556;PMS3003;52200;53.490;14.376;2023-09-08T08:29:34;19.75;19.00;12.00
65556;PMS3003;52200;53.490;14.376;2023-09-08T08:31:59;21.25;21.00;13.75
65556;PMS3003;52200;53.490;14.376;2023-09-08T08:34:24;19.50;19.50;13.00
65556;PMS3003;52200;53.490;14.376;2023-09-08T08:36:50;21.25;21.00;13.00
65556;PMS3003;52200;53.490;14.376;2023-09-08T08:39:15;24.00;22.75;13.25
65556;PMS3003;52200;53.490;14.376;2023-09-08T08:41:41;22.00;20.25;12.50
65556;PMS3003;52200;53.490;14.376;2023-09-08T08:44:07;21.75;21.00;13.00
65556;PMS3003;52200;53.490;14.376;2023-09-08T08:46:36;21.80;20.00;12.40
65556;PMS3003;52200;53.490;14.376;2023-09-08T08:49:02;19.40;18.40;11.20
65556;PMS3003;52200;53.490;14.376;2023-09-08T08:51:32;20.00;19.60;11.40
65556;PMS3003;52200;53.490;14.376;2023-09-08T08:53:59;21.60;20.40;12.60
65556;PMS3003;52200;53.490;14.376;2023-09-08T08:56:29;21.20;20.00;12.80
65556;PMS3003;52200;53.490;14.376;2023-09-08T08:58:55;20.20;19.60;12.00
65556;PMS3003;52200;53.490;14.376;2023-09-08T09:01:22;21.00;18.20;12.80
65556;PMS3003;52200;53.490;14.376;2023-09-08T09:03:49;17.80;17.00;12.20
65556;PMS3003;52200;53.490;14.376;2023-09-08T09:06:16;21.80;20.20;12.00
65556;PMS3003;52200;53.490;14.376;2023-09-08T09:08:42;19.60;18.00;11.60
65556;PMS3003;52200;53.490;14.376;2023-09-08T09:11:09;19.20;18.00;13.00
65556;PMS3003;52200;53.490;14.376;2023-09-08T09:13:35;23.20;20.00;11.80
65556;PMS3003;52200;53.490;14.376;2023-09-08T09:16:01;21.50;19.50;12.25
65556;PMS3003;52200;53.490;14.376;2023-09-08T09:18:29;20.20;19.60;12.60
65556;PMS3003;52200;53.490;14.376;2023-09-08T09:20:56;20.60;20.00;12.00
65556;PMS3003;52200;53.490;14.376;2023-09-08T09:23:26;20.00;19.00;11.60
65556;PMS3003;52200;53.490;14.376;2023-09-08T09:25:55;17.40;16.60;9.40
65556;PMS3003;52200;53.490;14.376;2023-09-08T09:28:21;18.40;18.20;11.60
65556;PMS3003;52200;53.490;14.376;2023-09-08T09:30:48;19.50;18.75;11.25
65556;PMS3003;52200;53.490;14.376;2023-09-08T09:33:14;20.40;17.60;11.00
65556;PMS3003;52200;53.490;14.376;2023-09-08T09:35:41;18.80;18.40;11.00
65556;PMS3003;52200;53.490;14.376;2023-09-08T09:38:11;17.00;16.20;11.00
65556;PMS3003;52200;53.490;14.376;2023-09-08T09:40:38;19.00;18.40;11.20
65556;PMS3003;52200;53.490;14.376;2023-09-08T09:43:04;20.20;19.80;11.20
65556;PMS3003;52200;53.490;14.376;2023-09-08T09:45:31;17.20;16.80;10.20
65556;PMS3003;52200;53.490;14.376;2023-09-08T09:47:58;18.40;17.00;10.00
65556;PMS3003;52200;53.490;14.376;2023-09-08T09:50:30;16.50;16.00;9.50
65556;PMS3003;52200;53.490;14.376;2023-09-08T09:53:01;15.80;15.00;10.00
65556;PMS3003;52200;53.490;14.376;2023-09-08T09:55:32;17.20;16.40;9.00
65556;PMS3003;52200;53.490;14.376;2023-09-08T09:57:59;16.60;15.80;8.80
65556;PMS3003;52200;53.490;14.376;2023-09-08T10:00:29;16.00;15.00;9.00
65556;PMS3003;52200;53.490;14.376;2023-09-08T10:02:55;16.80;16.20;9.00
65556;PMS3003;52200;53.490;14.376;2023-09-08T10:05:21;16.40;16.00;9.40
65556;PMS3003;52200;53.490;14.376;2023-09-08T10:07:48;20.60;18.00;9.40
65556;PMS3003;52200;53.490;14.376;2023-09-08T10:10:15;18.00;17.60;10.80
65556;PMS3003;52200;53.490;14.376;2023-09-08T10:12:42;16.00;15.80;9.00
65556;PMS3003;52200;53.490;14.376;2023-09-08T10:15:10;20.80;19.40;11.40
65556;PMS3003;52200;53.490;14.376;2023-09-08T10:17:36;20.00;20.00;13.00
65556;PMS3003;52200;53.490;14.376;2023-09-08T10:20:03;16.80;15.80;10.20
65556;PMS3003;52200;53.490;14.376;2023-09-08T10:22:36;17.40;17.40;10.20
65556;PMS3003;52200;53.490;14.376;2023-09-08T10:25:05;17.60;17.60;10.80
65556;PMS3003;52200;53.490;14.376;2023-09-08T10:27:31;20.00;19.60;12.80
65556;PMS3003;52200;53.490;14.376;2023-09-08T10:29:59;19.80;19.40;12.20
65556;PMS3003;52200;53.490;14.376;2023-09-08T10:32:26;18.20;18.20;11.60
65556;PMS3003;52200;53.490;14.376;2023-09-08T10:34:53;21.40;21.20;12.80
65556;PMS3003;52200;53.490;14.376;2023-09-08T10:39:44;19.50;19.00;12.00
65556;PMS3003;52200;53.490;14.376;2023-09-08T10:44:41;18.40;17.60;10.60
65556;PMS3003;52200;53.490;14.376;2023-09-08T10:47:13;21.40;20.00;11.20
65556;PMS3003;52200;53.490;14.376;2023-09-08T10:49:39;17.60;17.20;9.00
65556;PMS3003;52200;53.490;14.376;2023-09-08T10:52:09;14.00;14.00;8.00
65556;PMS3003;52200;53.490;14.376;2023-09-08T10:57:07;16.80;16.20;10.00
65556;PMS3003;52200;53.490;14.376;2023-09-08T10:59:55;13.60;13.20;7.40
65556;PMS3003;52200;53.490;14.376;2023-09-08T11:02:39;17.00;15.40;8.00
65556;PMS3003;52200;53.490;14.376;2023-09-08T11:05:06;15.40;15.00;8.20
65556;PMS3003;52200;53.490;14.376;2023-09-08T11:07:36;15.00;15.00;9.80
65556;PMS3003;52200;53.490;14.376;2023-09-08T11:10:03;18.60;17.60;10.00
65556;PMS3003;52200;53.490;14.376;2023-09-08T11:12:30;12.20;12.00;6.60
65556;PMS3003;52200;53.490;14.376;2023-09-08T11:14:55;14.20;14.00;8.00
65556;PMS3003;52200;53.490;14.376;2023-09-08T11:17:24;14.00;14.00;8.00
65556;PMS3003;52200;53.490;14.376;2023-09-08T11:19:51;15.00;14.80;9.60
65556;PMS3003;52200;53.490;14.376;2023-09-08T11:22:17;13.80;13.00;7.00
65556;PMS3003;52200;53.490;14.376;2023-09-08T11:24:43;16.60;16.00;8.80
65556;PMS3003;52200;53.490;14.376;2023-09-08T11:27:10;16.00;15.00;8.20
65556;PMS3003;52200;53.490;14.376;2023-09-08T11:29:36;15.20;15.20;8.00
65556;PMS3003;52200;53.490;14.376;2023-09-08T11:32:05;17.00;16.00;10.00
65556;PMS3003;52200;53.490;14.376;2023-09-08T11:34:34;16.80;16.40;9.40
65556;PMS3003;52200;53.490;14.376;2023-09-08T11:37:00;16.00;15.00;9.00
65556;PMS3003;52200;53.490;14.376;2023-09-08T11:39:35;15.60;15.60;9.80
65556;PMS3003;52200;53.490;14.376;2023-09-08T11:42:02;16.00;15.60;7.80
65556;PMS3003;52200;53.490;14.376;2023-09-08T11:44:27;16.00;16.00;8.75
65556;PMS3003;52200;53.490;14.376;2023-09-08T11:46:53;14.75;14.75;8.00
65556;PMS3003;52200;53.490;14.376;2023-09-08T11:49:19;16.20;16.20;9.40
65556;PMS3003;52200;53.490;14.376;2023-09-08T11:51:47;16.20;16.00;8.20
65556;PMS3003;52200;53.490;14.376;2023-09-08T11:54:13;16.00;14.25;8.75
65556;PMS3003;52200;53.490;14.376;2023-09-08T11:56:38;13.50;13.50;8.00
65556;PMS3003;52200;53.490;14.376;2023-09-08T11:59:04;16.75;16.50;9.75
65556;PMS3003;52200;53.490;14.376;2023-09-08T12:01:29;16.50;15.25;9.25
65556;PMS3003;52200;53.490;14.376;2023-09-08T12:03:55;16.25;15.75;8.75
65556;PMS3003;52200;53.490;14.376;2023-09-08T12:06:26;14.80;14.60;8.00
65556;PMS3003;52200;53.490;14.376;2023-09-08T12:08:53;15.60;15.40;8.80
65556;PMS3003;52200;53.490;14.376;2023-09-08T12:11:19;16.40;15.80;9.00
65556;PMS3003;52200;53.490;14.376;2023-09-08T12:13:44;16.25;15.25;8.75
65556;PMS3003;52200;53.490;14.376;2023-09-08T12:16:19;15.50;15.50;8.00
65556;PMS3003;52200;53.490;14.376;2023-09-08T12:18:48;14.40;14.40;8.00
65556;PMS3003;52200;53.490;14.376;2023-09-08T12:21:14;15.00;15.00;8.40
65556;PMS3003;52200;53.490;14.376;2023-09-08T12:23:46;16.00;16.00;10.75
65556;PMS3003;52200;53.490;14.376;2023-09-08T12:26:14;14.00;13.00;7.60
65556;PMS3003;52200;53.490;14.376;2023-09-08T12:28:41;14.20;14.00;8.00
65556;PMS3003;52200;53.490;14.376;2023-09-08T12:31:07;14.00;14.00;7.20
65556;PMS3003;52200;53.490;14.376;2023-09-08T12:33:34;15.00;14.80;8.00
65556;PMS3003;52200;53.490;14.376;2023-09-08T12:35:59;16.20;15.20;8.20
65556;PMS3003;52200;53.490;14.376;2023-09-08T12:38:34;13.40;13.00;7.60
65556;PMS3003;52200;53.490;14.376;2023-09-08T12:40:59;16.00;14.75;7.50
65556;PMS3003;52200;53.490;14.376;2023-09-08T12:43:25;13.75;13.25;7.50
65556;PMS3003;52200;53.490;14.376;2023-09-08T12:45:50;14.50;14.50;7.50
65556;PMS3003;52200;53.490;14.376;2023-09-08T12:48:15;17.75;16.00;9.00
65556;PMS3003;52200;53.490;14.376;2023-09-08T12:50:41;17.75;17.25;8.00
65556;PMS3003;52200;53.490;14.376;2023-09-08T12:53:06;16.25;15.75;9.00
65556;PMS3003;52200;53.490;14.376;2023-09-08T12:55:31;14.50;14.50;8.75
65556;PMS3003;52200;53.490;14.376;2023-09-08T12:57:57;16.25;16.00;9.00
65556;PMS3003;52200;53.490;14.376;2023-09-08T13:00:22;16.75;16.00;9.00
65556;PMS3003;52200;53.490;14.376;2023-09-08T13:02:48;18.80;17.20;10.20
65556;PMS3003;52200;53.490;14.376;2023-09-08T13:05:14;15.00;15.00;9.80
65556;PMS3003;52200;53.490;14.376;2023-09-08T13:07:39;15.50;14.50;9.00
65556;PMS3003;52200;53.490;14.376;2023-09-08T13:10:05;17.50;17.00;9.25
65556;PMS3003;52200;53.490;14.376;2023-09-08T13:12:32;16.80;16.20;9.20
65556;PMS3003;52200;53.490;14.376;2023-09-08T13:14:58;14.80;14.60;7.60
65556;PMS3003;52200;53.490;14.376;2023-09-08T13:17:23;16.25;15.25;9.00
65556;PMS3003;52200;53.490;14.376;2023-09-08T13:19:49;16.75;15.75;9.50
65556;PMS3003;52200;53.490;14.376;2023-09-08T13:22:14;14.75;14.75;8.25
65556;PMS3003;52200;53.490;14.376;2023-09-08T13:24:39;15.75;15.75;8.75
65556;PMS3003;52200;53.490;14.376;2023-09-08T13:27:05;14.80;14.60;8.20
65556;PMS3003;52200;53.490;14.376;2023-09-08T13:29:31;14.50;13.25;7.50
65556;PMS3003;52200;53.490;14.376;2023-09-08T13:31:56;15.25;14.75;8.00
65556;PMS3003;52200;53.490;14.376;2023-09-08T13:34:22;16.60;14.40;6.20
65556;PMS3003;52200;53.490;14.376;2023-09-08T13:36:48;16.00;15.00;8.00
65556;PMS3003;52200;53.490;14.376;2023-09-08T13:39:13;14.50;14.50;8.00
65556;PMS3003;52200;53.490;14.376;2023-09-08T13:41:46;15.60;14.40;8.20
65556;PMS3003;52200;53.490;14.376;2023-09-08T13:44:19;13.60;13.00;7.20
65556;PMS3003;52200;53.490;14.376;2023-09-08T13:46:46;14.20;13.60;7.80
65556;PMS3003;52200;53.490;14.376;2023-09-08T13:49:12;14.80;13.60;7.60
65556;PMS3003;52200;53.490;14.376;2023-09-08T13:51:38;14.40;13.20;7.60